createdAt,value
2023-05-24T00:00:57.158Z,14.375
2023-05-24T00:03:57.835Z,14.375
2023-05-24T00:06:57.382Z,14.375
2023-05-24T00:09:57.397Z,14.375
2023-05-24T00:12:57.867Z,14.312
2023-05-24T00:15:58.129Z,14.312
2023-05-24T00:18:57.667Z,14.312
2023-05-24T00:21:57.500Z,14.312
2023-05-24T00:24:57.559Z,14.312
2023-05-24T00:27:57.497Z,14.312
2023-05-24T00:30:57.886Z,14.312
2023-05-24T00:33:57.474Z,14.312
2023-05-24T00:36:56.932Z,14.312
2023-05-24T00:39:58.223Z,14.312
2023-05-24T00:42:57.138Z,14.25
2023-05-24T00:45:57.821Z,14.25
2023-05-24T00:48:57.046Z,14.25
2023-05-24T00:51:56.930Z,14.25
2023-05-24T00:54:57.460Z,14.25
2023-05-24T00:57:57.097Z,14.25
2023-05-24T01:00:57.246Z,14.25
2023-05-24T01:03:57.645Z,14.25
2023-05-24T01:06:57.235Z,14.25
2023-05-24T01:09:57.163Z,14.25
2023-05-24T01:12:57.333Z,14.25
2023-05-24T01:15:57.147Z,14.25
2023-05-24T01:18:57.176Z,14.187
2023-05-24T01:21:56.858Z,14.187
2023-05-24T01:24:57.022Z,14.187
2023-05-24T01:27:56.980Z,14.187
2023-05-24T01:30:57.328Z,14.187
2023-05-24T01:33:56.916Z,14.187
2023-05-24T01:36:57.129Z,14.187
2023-05-24T01:39:57.160Z,14.187
2023-05-24T01:42:56.785Z,14.187
2023-05-24T01:45:57.530Z,14.125
2023-05-24T01:48:56.593Z,14.125
2023-05-24T01:51:57.666Z,14.125
2023-05-24T01:54:57.463Z,14.125
2023-05-24T01:57:57.023Z,14.125
2023-05-24T02:00:57.516Z,14.125
2023-05-24T02:03:57.387Z,14.125
2023-05-24T02:06:57.216Z,14.125
2023-05-24T02:09:56.795Z,14.125
2023-05-24T02:12:57.016Z,14.125
2023-05-24T02:15:57.389Z,14.062
2023-05-24T02:18:58.069Z,14.062
2023-05-24T02:21:57.605Z,14.062
2023-05-24T02:24:57.614Z,14.062
2023-05-24T02:27:57.304Z,14.062
2023-05-24T02:30:57.091Z,14.062
2023-05-24T02:33:56.888Z,14.062
2023-05-24T02:36:57.161Z,14.0
2023-05-24T02:39:56.917Z,14.062
2023-05-24T02:42:57.679Z,14.0
2023-05-24T02:45:57.730Z,14.062
2023-05-24T02:48:56.868Z,14.0
2023-05-24T02:51:57.739Z,14.0
2023-05-24T02:54:56.786Z,14.0
2023-05-24T02:57:56.911Z,14.0
2023-05-24T03:00:57.430Z,14.0
2023-05-24T03:03:56.755Z,14.0
2023-05-24T03:06:57.306Z,14.0
2023-05-24T03:09:57.541Z,13.937
2023-05-24T03:12:56.848Z,14.0
2023-05-24T03:15:57.510Z,13.937
2023-05-24T03:18:57.489Z,13.937
2023-05-24T03:21:57.284Z,13.937
2023-05-24T03:24:57.075Z,13.937
2023-05-24T03:27:57.320Z,13.937
2023-05-24T03:30:58.034Z,13.937
2023-05-24T03:33:57.302Z,13.937
2023-05-24T03:36:57.146Z,13.937
2023-05-24T03:39:56.819Z,13.937
2023-05-24T03:42:57.215Z,13.937
2023-05-24T03:45:57.311Z,13.875
2023-05-24T03:48:57.339Z,13.875
2023-05-24T03:51:57.533Z,13.875
2023-05-24T03:54:57.192Z,13.875
2023-05-24T03:57:57.667Z,13.875
2023-05-24T04:00:57.084Z,13.875
2023-05-24T04:03:56.843Z,13.875
2023-05-24T04:06:57.106Z,13.875
2023-05-24T04:09:57.678Z,13.875
2023-05-24T04:12:56.818Z,13.812
2023-05-24T04:15:57.341Z,13.812
2023-05-24T04:18:57.869Z,13.812
2023-05-24T04:21:56.943Z,13.812
2023-05-24T04:24:57.204Z,13.812
2023-05-24T04:27:57.226Z,13.812
2023-05-24T04:30:57.531Z,13.812
2023-05-24T04:33:57.449Z,13.812
2023-05-24T04:36:57.247Z,13.812
2023-05-24T04:39:57.977Z,13.75
2023-05-24T04:42:57.390Z,13.75
2023-05-24T04:45:57.283Z,13.75
2023-05-24T04:48:57.256Z,13.75
2023-05-24T04:51:57.185Z,13.75
2023-05-24T04:54:57.498Z,13.75
2023-05-24T04:57:57.187Z,13.75
2023-05-24T05:00:57.782Z,13.75
2023-05-24T05:03:57.289Z,13.75
2023-05-24T05:06:56.932Z,13.75
2023-05-24T05:09:58.074Z,13.75
2023-05-24T05:12:57.745Z,13.75
2023-05-24T05:15:58.025Z,13.687
2023-05-24T05:18:57.821Z,13.687
2023-05-24T05:21:57.634Z,13.687
2023-05-24T05:24:56.971Z,13.687
2023-05-24T05:27:57.227Z,13.687
2023-05-24T05:30:57.677Z,13.687
2023-05-24T05:33:57.347Z,13.687
2023-05-24T05:36:57.356Z,13.687
2023-05-24T05:39:57.680Z,13.687
2023-05-24T05:42:57.516Z,13.687
2023-05-24T05:45:57.648Z,13.687
2023-05-24T05:48:57.349Z,13.687
2023-05-24T05:51:57.574Z,13.687
2023-05-24T05:54:57.190Z,13.625
2023-05-24T05:57:58.075Z,13.625
2023-05-24T06:00:58.044Z,13.625
2023-05-24T06:03:57.234Z,13.625
2023-05-24T06:06:57.253Z,13.625
2023-05-24T06:09:58.224Z,13.625
2023-05-24T06:12:57.562Z,13.625
2023-05-24T06:15:58.050Z,13.625
2023-05-24T06:19:05.983Z,13.625
2023-05-24T06:21:57.259Z,13.625
2023-05-24T06:24:57.688Z,13.562
2023-05-24T06:27:58.149Z,13.625
2023-05-24T06:30:57.122Z,13.625
2023-05-24T06:36:56.923Z,13.562
2023-05-24T06:39:57.558Z,13.562
2023-05-24T06:42:57.778Z,13.562
2023-05-24T06:45:57.445Z,13.562
2023-05-24T06:48:57.555Z,13.562
2023-05-24T06:51:57.672Z,13.562
2023-05-24T06:54:57.683Z,13.562
2023-05-24T06:57:57.363Z,13.562
2023-05-24T07:00:57.446Z,13.562
2023-05-24T07:03:57.489Z,13.562
2023-05-24T07:06:57.727Z,13.562
2023-05-24T07:09:57.622Z,13.562
2023-05-24T07:12:57.346Z,13.562
2023-05-24T07:15:57.176Z,13.562
2023-05-24T07:18:57.376Z,13.5
2023-05-24T07:21:57.354Z,13.5
2023-05-24T07:24:57.765Z,13.5
2023-05-24T07:27:57.915Z,13.5
2023-05-24T07:30:56.993Z,13.5
2023-05-24T07:33:57.814Z,13.5
2023-05-24T07:36:56.891Z,13.5
2023-05-24T07:39:57.178Z,13.5
2023-05-24T07:42:57.316Z,13.5
2023-05-24T07:45:58.279Z,13.5
2023-05-24T07:48:56.732Z,13.5
2023-05-24T07:51:57.707Z,13.5
2023-05-24T07:54:57.823Z,13.5
2023-05-24T07:57:56.870Z,13.5
2023-05-24T08:00:57.586Z,13.5
2023-05-24T08:03:57.921Z,13.5
2023-05-24T08:06:57.151Z,13.5
2023-05-24T08:09:58.222Z,13.5
2023-05-24T08:12:57.027Z,13.437
2023-05-24T08:15:57.379Z,13.437
2023-05-24T08:18:57.443Z,13.437
2023-05-24T08:21:57.059Z,13.437
2023-05-24T08:24:57.224Z,13.437
2023-05-24T08:27:57.179Z,13.437
2023-05-24T08:30:57.414Z,13.437
2023-05-24T08:33:57.108Z,13.437
2023-05-24T08:36:56.976Z,13.437
2023-05-24T08:39:57.965Z,13.437
2023-05-24T08:42:57.787Z,13.437
2023-05-24T08:45:57.369Z,13.437
2023-05-24T08:48:56.959Z,13.437
2023-05-24T08:51:57.866Z,13.437
2023-05-24T08:54:57.789Z,13.437
2023-05-24T08:57:57.715Z,13.437
2023-05-24T09:00:58.425Z,13.437
2023-05-24T09:03:57.245Z,13.437
2023-05-24T09:06:57.920Z,13.437
2023-05-24T09:09:58.398Z,13.437
2023-05-24T09:12:57.383Z,13.437
2023-05-24T09:15:57.599Z,13.437
2023-05-24T09:18:57.513Z,13.437
2023-05-24T09:21:57.621Z,13.437
2023-05-24T09:24:56.953Z,13.437
2023-05-24T09:27:57.144Z,13.375
2023-05-24T09:30:57.724Z,13.375
2023-05-24T09:33:57.322Z,13.375
2023-05-24T09:36:56.864Z,13.375
2023-05-24T09:39:57.712Z,13.375
2023-05-24T09:42:57.177Z,13.375
2023-05-24T09:45:57.127Z,13.375
2023-05-24T09:48:57.895Z,13.375
2023-05-24T09:51:57.989Z,13.375
2023-05-24T09:54:57.161Z,13.375
2023-05-24T09:57:57.090Z,13.375
2023-05-24T10:00:57.737Z,13.375
2023-05-24T10:03:57.062Z,13.375
2023-05-24T10:06:56.694Z,13.375
2023-05-24T10:09:57.799Z,13.375
2023-05-24T10:12:57.789Z,13.375
2023-05-24T10:15:57.786Z,13.375
2023-05-24T10:18:57.513Z,13.375
2023-05-24T10:21:57.332Z,13.375
2023-05-24T10:24:57.571Z,13.375
2023-05-24T10:27:57.179Z,13.375
2023-05-24T10:30:57.421Z,13.375
2023-05-24T10:34:06.663Z,13.375
2023-05-24T10:36:57.410Z,13.375
2023-05-24T10:39:56.734Z,13.375
2023-05-24T10:42:56.754Z,13.375
2023-05-24T10:45:56.984Z,13.375
2023-05-24T10:48:57.037Z,13.375
2023-05-24T10:51:57.597Z,13.375
2023-05-24T10:55:03.448Z,13.375
2023-05-24T10:57:57.301Z,13.375
2023-05-24T11:00:57.555Z,13.375
2023-05-24T11:04:16.661Z,13.375
2023-05-24T11:06:57.222Z,13.375
2023-05-24T11:09:56.969Z,13.375
2023-05-24T11:12:56.872Z,13.375
2023-05-24T11:15:57.824Z,13.375
2023-05-24T11:18:57.354Z,13.375
2023-05-24T11:21:57.090Z,13.312
2023-05-24T11:24:57.832Z,13.375
2023-05-24T11:27:57.581Z,13.375
2023-05-24T11:30:57.716Z,13.375
2023-05-24T11:33:57.485Z,13.312
2023-05-24T11:36:57.779Z,13.375
2023-05-24T11:39:58.297Z,13.312
2023-05-24T11:42:56.886Z,13.375
2023-05-24T11:45:57.317Z,13.312
2023-05-24T11:48:56.963Z,13.312
2023-05-24T11:51:58.101Z,13.312
2023-05-24T11:54:57.170Z,13.312
2023-05-24T11:57:58.616Z,13.312
2023-05-24T12:00:58.169Z,13.312
2023-05-24T12:03:57.259Z,13.312
2023-05-24T12:06:57.347Z,13.312
2023-05-24T12:09:57.028Z,13.312
2023-05-24T12:12:56.714Z,13.312
2023-05-24T12:15:57.655Z,13.312
2023-05-24T12:19:05.083Z,13.312
2023-05-24T12:21:57.748Z,13.312
2023-05-24T12:24:57.156Z,13.312
2023-05-24T12:27:57.147Z,13.312
2023-05-24T12:30:58.016Z,13.312
2023-05-24T12:33:57.083Z,13.312
2023-05-24T12:36:57.025Z,13.312
2023-05-24T12:39:57.947Z,13.312
2023-05-24T12:42:57.549Z,13.312
2023-05-24T12:45:57.096Z,13.312
2023-05-24T12:48:57.424Z,13.312
2023-05-24T12:51:57.423Z,13.312
2023-05-24T12:54:57.826Z,13.312
2023-05-24T12:57:56.980Z,13.312
2023-05-24T13:00:57.561Z,13.312
2023-05-24T13:03:57.757Z,13.312
2023-05-24T13:06:57.256Z,13.312
2023-05-24T13:09:57.426Z,13.312
2023-05-24T13:12:57.092Z,13.312
2023-05-24T13:15:57.561Z,13.312
2023-05-24T13:18:57.204Z,13.312
2023-05-24T13:21:57.722Z,13.312
2023-05-24T13:24:56.997Z,13.312
2023-05-24T13:27:57.369Z,13.312
2023-05-24T13:30:57.974Z,13.312
2023-05-24T13:33:57.533Z,13.312
2023-05-24T13:36:57.811Z,13.312
2023-05-24T13:39:57.801Z,13.312
2023-05-24T13:42:57.547Z,13.312
2023-05-24T13:45:57.154Z,13.312
2023-05-24T13:48:56.942Z,13.312
2023-05-24T13:51:58.508Z,13.312
2023-05-24T13:54:57.605Z,13.375
2023-05-24T13:57:56.684Z,13.375
2023-05-24T14:00:57.235Z,13.375
2023-05-24T14:03:57.314Z,13.375
2023-05-24T14:06:57.112Z,13.375
2023-05-24T14:09:57.497Z,13.375
2023-05-24T14:13:15.058Z,13.375
2023-05-24T14:15:58.317Z,13.375
2023-05-24T14:18:57.223Z,13.375
2023-05-24T14:21:57.396Z,13.437
2023-05-24T14:24:57.841Z,13.437
2023-05-24T14:27:57.100Z,13.437
2023-05-24T14:30:57.058Z,13.437
2023-05-24T14:33:57.139Z,13.437
2023-05-24T14:36:57.743Z,13.437
2023-05-24T14:39:57.187Z,13.5
2023-05-24T14:42:57.442Z,13.5
2023-05-24T14:45:57.395Z,13.5
2023-05-24T14:48:57.342Z,13.5
2023-05-24T14:51:57.805Z,13.5
2023-05-24T14:54:57.776Z,13.5
2023-05-24T14:57:57.194Z,13.5
2023-05-24T15:00:57.686Z,13.5
2023-05-24T15:03:57.206Z,13.5
2023-05-24T15:06:57.872Z,13.562
2023-05-24T15:09:57.752Z,13.562
2023-05-24T15:12:57.029Z,13.562
2023-05-24T15:15:57.451Z,13.562
2023-05-24T15:18:57.728Z,13.562
2023-05-24T15:21:56.758Z,13.562
2023-05-24T15:24:56.673Z,13.562
2023-05-24T15:27:57.499Z,13.562
2023-05-24T15:30:57.160Z,13.562
2023-05-24T15:33:56.913Z,13.562
2023-05-24T15:36:57.267Z,13.562
2023-05-24T15:39:57.998Z,13.562
2023-05-24T15:42:58.017Z,13.562
2023-05-24T15:45:57.529Z,13.562
2023-05-24T15:48:57.311Z,13.625
2023-05-24T15:52:04.196Z,13.625
2023-05-24T15:54:58.106Z,13.625
2023-05-24T15:57:57.711Z,13.625
2023-05-24T16:00:58.209Z,13.625
2023-05-24T16:03:57.926Z,13.625
2023-05-24T16:06:57.327Z,13.625
2023-05-24T16:09:57.590Z,13.625
2023-05-24T16:12:57.512Z,13.625
2023-05-24T16:15:58.364Z,13.625
2023-05-24T16:18:57.611Z,13.625
2023-05-24T16:21:58.212Z,13.625
2023-05-24T16:24:58.113Z,13.625
2023-05-24T16:27:57.455Z,13.625
2023-05-24T16:30:57.663Z,13.625
2023-05-24T16:33:57.954Z,13.625
2023-05-24T16:36:57.615Z,13.625
2023-05-24T16:39:58.001Z,13.625
2023-05-24T16:42:58.127Z,13.625
2023-05-24T16:45:57.562Z,13.625
2023-05-24T16:48:58.022Z,13.625
2023-05-24T16:51:58.046Z,13.625
2023-05-24T16:54:58.171Z,13.625
2023-05-24T16:57:56.990Z,13.625
2023-05-24T17:00:58.353Z,13.625
2023-05-24T17:03:57.899Z,13.625
2023-05-24T17:06:57.457Z,13.625
2023-05-24T17:09:57.679Z,13.625
2023-05-24T17:12:57.409Z,13.625
2023-05-24T17:15:57.297Z,13.625
2023-05-24T17:18:57.126Z,13.625
2023-05-24T17:21:57.742Z,13.625
2023-05-24T17:24:57.723Z,13.625
2023-05-24T17:27:57.605Z,13.625
2023-05-24T17:30:58.347Z,13.625
2023-05-24T17:33:57.934Z,13.625
2023-05-24T17:36:57.215Z,13.625
2023-05-24T17:39:57.884Z,13.625
2023-05-24T17:42:57.339Z,13.625
2023-05-24T17:45:57.534Z,13.625
2023-05-24T17:48:58.241Z,13.625
2023-05-24T17:52:00.288Z,13.625
2023-05-24T17:54:57.196Z,13.625
2023-05-24T17:57:57.346Z,13.625
2023-05-24T18:00:58.157Z,13.625
2023-05-24T18:03:57.279Z,13.625
2023-05-24T18:06:57.644Z,13.625
2023-05-24T18:10:00.048Z,13.625
2023-05-24T18:12:57.047Z,13.625
2023-05-24T18:15:57.522Z,13.625
2023-05-24T18:18:56.903Z,13.625
2023-05-24T18:21:57.184Z,13.562
2023-05-24T18:24:57.842Z,13.562
2023-05-24T18:27:57.838Z,13.562
2023-05-24T18:30:57.915Z,13.562
2023-05-24T18:33:57.352Z,13.562
2023-05-24T18:36:57.523Z,13.562
2023-05-24T18:39:57.948Z,13.562
2023-05-24T18:42:57.097Z,13.562
2023-05-24T18:45:57.232Z,13.562
2023-05-24T18:48:56.835Z,13.562
2023-05-24T18:51:57.641Z,13.562
2023-05-24T18:54:57.402Z,13.562
2023-05-24T18:57:57.516Z,13.562
2023-05-24T19:01:26.336Z,13.562
2023-05-24T19:03:57.900Z,13.562
2023-05-24T19:06:57.740Z,13.562
2023-05-24T19:09:57.410Z,13.562
2023-05-24T19:12:58.174Z,13.5
2023-05-24T19:15:57.796Z,13.5
2023-05-24T19:18:57.561Z,13.5
2023-05-24T19:21:57.209Z,13.5
2023-05-24T19:24:57.278Z,13.5
2023-05-24T19:28:00.530Z,13.5
2023-05-24T19:30:57.134Z,13.5
2023-05-24T19:34:01.020Z,13.5
2023-05-24T19:36:57.703Z,13.5
2023-05-24T19:39:57.207Z,13.5
2023-05-24T19:42:57.024Z,13.5
2023-05-24T19:45:57.052Z,13.5
2023-05-24T19:48:58.322Z,13.5
2023-05-24T19:51:56.952Z,13.5
2023-05-24T19:54:57.317Z,13.5
2023-05-24T19:57:57.923Z,13.437
2023-05-24T20:00:58.231Z,13.437
2023-05-24T20:03:57.615Z,13.437
2023-05-24T20:06:57.647Z,13.437
2023-05-24T20:09:57.907Z,13.437
2023-05-24T20:12:57.637Z,13.437
2023-05-24T20:15:57.751Z,13.437
2023-05-24T20:18:57.341Z,13.437
2023-05-24T20:21:57.471Z,13.437
2023-05-24T20:24:57.520Z,13.375
2023-05-24T20:27:57.536Z,13.375
2023-05-24T20:30:57.961Z,13.437
2023-05-24T20:33:57.132Z,13.375
2023-05-24T20:36:57.407Z,13.375
2023-05-24T20:39:57.346Z,13.375
2023-05-24T20:42:56.989Z,13.375
2023-05-24T20:45:58.044Z,13.375
2023-05-24T20:48:56.892Z,13.375
2023-05-24T20:51:57.883Z,13.375
2023-05-24T20:54:56.955Z,13.375
2023-05-24T20:57:57.256Z,13.375
2023-05-24T21:00:57.637Z,13.375
2023-05-24T21:03:57.244Z,13.375
2023-05-24T21:06:57.373Z,13.312
2023-05-24T21:09:57.802Z,13.312
2023-05-24T21:12:57.640Z,13.312
2023-05-24T21:15:57.305Z,13.312
2023-05-24T21:18:57.815Z,13.312
2023-05-24T21:21:57.469Z,13.312
2023-05-24T21:24:57.066Z,13.312
2023-05-24T21:27:57.231Z,13.312
2023-05-24T21:30:57.357Z,13.312
2023-05-24T21:33:56.834Z,13.312
2023-05-24T21:36:58.048Z,13.312
2023-05-24T21:39:57.981Z,13.312
2023-05-24T21:42:57.116Z,13.312
2023-05-24T21:45:58.096Z,13.312
2023-05-24T21:48:58.290Z,13.25
2023-05-24T21:51:57.930Z,13.25
2023-05-24T21:54:56.980Z,13.25
2023-05-24T21:57:56.653Z,13.25
2023-05-24T22:00:57.869Z,13.25
2023-05-24T22:03:57.459Z,13.25
2023-05-24T22:06:57.005Z,13.25
2023-05-24T22:09:57.191Z,13.25
2023-05-24T22:12:56.710Z,13.25
2023-05-24T22:15:57.729Z,13.25
2023-05-24T22:18:57.790Z,13.187
2023-05-24T22:21:56.580Z,13.187
2023-05-24T22:24:56.730Z,13.187
2023-05-24T22:27:57.263Z,13.187
2023-05-24T22:30:57.445Z,13.187
2023-05-24T22:33:57.379Z,13.187
2023-05-24T22:36:57.769Z,13.187
2023-05-24T22:39:57.692Z,13.187
2023-05-24T22:42:57.390Z,13.187
2023-05-24T22:45:57.445Z,13.187
2023-05-24T22:48:57.021Z,13.125
2023-05-24T22:51:57.294Z,13.125
2023-05-24T22:54:57.815Z,13.125
2023-05-24T22:57:56.996Z,13.125
2023-05-24T23:00:58.098Z,13.125
2023-05-24T23:04:07.733Z,13.125
2023-05-24T23:06:57.812Z,13.125
2023-05-24T23:09:57.173Z,13.125
2023-05-24T23:12:56.920Z,13.125
2023-05-24T23:15:57.176Z,13.125
2023-05-24T23:18:57.797Z,13.125
2023-05-24T23:21:57.159Z,13.062
2023-05-24T23:24:57.338Z,13.125
2023-05-24T23:27:57.436Z,13.125
2023-05-24T23:30:57.599Z,13.125
2023-05-24T23:33:57.774Z,13.125
2023-05-24T23:36:57.268Z,13.062
2023-05-24T23:39:57.373Z,13.062
2023-05-24T23:42:57.629Z,13.062
2023-05-24T23:45:57.440Z,13.062
2023-05-24T23:49:02.030Z,13.062
2023-05-24T23:51:57.434Z,13.062
2023-05-24T23:54:56.783Z,13.0
2023-05-24T23:57:57.272Z,13.0
